Terminal Aerodrome Forecast
Issued by NWS

Home | Current Version | Previous Version | Text Only | Print | Product List | Glossary Off
Versions: 1 2 3 4 5 6 7 8 9 10 11 12 13 14 15 16 17 18 19 20 21 22 23 24 25 26

000
FTUS43 KLOT 261724
TAFORD
TAF
KORD 261724Z 2618/2724 10010KT P6SM FEW050 SCT120 BKN150
     FM262000 08012KT 6SM -SHRA VCTS SCT035CB BKN060
      TEMPO 2621/2623 4SM -TSRA SCT020 OVC035CB
     FM270000 07010KT P6SM VCSH SCT010 BKN020
     FM270300 03008KT P6SM SCT020 BKN030
     FM270600 02005KT 6SM BR SCT050
     FM271300 08006KT P6SM SCT150=

USA.gov is the U.S. government's official web portal to all federal, state and local government web resources and services.